sensor_id;sensor_type;location;lat;lon;timestamp;P1;durP1;ratioP1;P2;durP2;ratioP2
17201;SDS011;8717;53.588;10.176;2023-08-31T00:01:03;12.83;;;10.90;;
17201;SDS011;8717;53.588;10.176;2023-08-31T00:03:30;11.93;;;10.43;;
17201;SDS011;8717;53.588;10.176;2023-08-31T00:05:57;10.73;;;9.73;;
17201;SDS011;8717;53.588;10.176;2023-08-31T00:08:27;13.33;;;11.10;;
17201;SDS011;8717;53.588;10.176;2023-08-31T00:10:57;11.47;;;10.27;;
17201;SDS011;8717;53.588;10.176;2023-08-31T00:13:26;13.33;;;11.03;;
17201;SDS011;8717;53.588;10.176;2023-08-31T00:15:54;11.30;;;10.10;;
17201;SDS011;8717;53.588;10.176;2023-08-31T00:18:22;13.63;;;10.43;;
17201;SDS011;8717;53.588;10.176;2023-08-31T00:20:49;12.10;;;10.90;;
17201;SDS011;8717;53.588;10.176;2023-08-31T00:23:16;13.33;;;10.30;;
17201;SDS011;8717;53.588;10.176;2023-08-31T00:25:44;11.83;;;10.00;;
17201;SDS011;8717;53.588;10.176;2023-08-31T00:28:11;11.80;;;10.23;;
17201;SDS011;8717;53.588;10.176;2023-08-31T00:30:42;12.17;;;9.93;;
17201;SDS011;8717;53.588;10.176;2023-08-31T00:33:09;11.40;;;9.90;;
17201;SDS011;8717;53.588;10.176;2023-08-31T00:35:36;10.53;;;8.90;;
17201;SDS011;8717;53.588;10.176;2023-08-31T00:38:03;10.87;;;9.77;;
17201;SDS011;8717;53.588;10.176;2023-08-31T00:40:30;11.30;;;9.67;;
17201;SDS011;8717;53.588;10.176;2023-08-31T00:42:58;13.03;;;9.87;;
17201;SDS011;8717;53.588;10.176;2023-08-31T00:45:26;13.10;;;10.03;;
17201;SDS011;8717;53.588;10.176;2023-08-31T00:47:55;11.37;;;9.60;;
17201;SDS011;8717;53.588;10.176;2023-08-31T00:50:22;12.10;;;10.17;;
17201;SDS011;8717;53.588;10.176;2023-08-31T00:52:49;11.50;;;10.30;;
17201;SDS011;8717;53.588;10.176;2023-08-31T00:55:16;11.40;;;10.20;;
17201;SDS011;8717;53.588;10.176;2023-08-31T00:57:43;11.57;;;10.27;;
17201;SDS011;8717;53.588;10.176;2023-08-31T01:00:10;11.23;;;10.03;;
17201;SDS011;8717;53.588;10.176;2023-08-31T01:02:40;11.33;;;9.73;;
17201;SDS011;8717;53.588;10.176;2023-08-31T01:05:18;11.97;;;9.60;;
17201;SDS011;8717;53.588;10.176;2023-08-31T01:07:57;10.30;;;8.70;;
17201;SDS011;8717;53.588;10.176;2023-08-31T01:10:29;11.47;;;9.40;;
17201;SDS011;8717;53.588;10.176;2023-08-31T01:13:00;11.03;;;8.87;;
17201;SDS011;8717;53.588;10.176;2023-08-31T01:15:31;9.43;;;8.20;;
17201;SDS011;8717;53.588;10.176;2023-08-31T01:17:58;9.40;;;8.50;;
17201;SDS011;8717;53.588;10.176;2023-08-31T01:20:31;9.67;;;8.67;;
17201;SDS011;8717;53.588;10.176;2023-08-31T01:23:04;10.13;;;9.13;;
17201;SDS011;8717;53.588;10.176;2023-08-31T01:25:36;10.60;;;8.57;;
17201;SDS011;8717;53.588;10.176;2023-08-31T01:28:04;10.63;;;8.70;;
17201;SDS011;8717;53.588;10.176;2023-08-31T01:30:33;10.33;;;8.10;;
17201;SDS011;8717;53.588;10.176;2023-08-31T01:32:59;8.80;;;7.53;;
17201;SDS011;8717;53.588;10.176;2023-08-31T01:35:27;9.20;;;6.80;;
17201;SDS011;8717;53.588;10.176;2023-08-31T01:37:57;9.37;;;7.63;;
17201;SDS011;8717;53.588;10.176;2023-08-31T01:40:27;8.97;;;7.27;;
17201;SDS011;8717;53.588;10.176;2023-08-31T01:43:01;9.53;;;7.23;;
17201;SDS011;8717;53.588;10.176;2023-08-31T01:45:29;8.03;;;6.97;;
17201;SDS011;8717;53.588;10.176;2023-08-31T01:47:58;9.03;;;7.30;;
17201;SDS011;8717;53.588;10.176;2023-08-31T01:50:25;8.90;;;7.07;;
17201;SDS011;8717;53.588;10.176;2023-08-31T01:52:52;11.73;;;6.97;;
17201;SDS011;8717;53.588;10.176;2023-08-31T01:55:19;8.20;;;6.37;;
17201;SDS011;8717;53.588;10.176;2023-08-31T01:57:47;9.10;;;6.70;;
17201;SDS011;8717;53.588;10.176;2023-08-31T02:00:25;6.73;;;5.97;;
17201;SDS011;8717;53.588;10.176;2023-08-31T02:02:54;7.00;;;5.40;;
17201;SDS011;8717;53.588;10.176;2023-08-31T02:05:21;9.93;;;5.97;;
17201;SDS011;8717;53.588;10.176;2023-08-31T02:07:48;8.67;;;6.33;;
17201;SDS011;8717;53.588;10.176;2023-08-31T02:10:15;7.73;;;6.20;;
17201;SDS011;8717;53.588;10.176;2023-08-31T02:12:42;9.40;;;5.73;;
17201;SDS011;8717;53.588;10.176;2023-08-31T02:15:09;8.30;;;6.10;;
17201;SDS011;8717;53.588;10.176;2023-08-31T02:17:38;8.30;;;6.73;;
17201;SDS011;8717;53.588;10.176;2023-08-31T02:20:05;8.37;;;6.27;;
17201;SDS011;8717;53.588;10.176;2023-08-31T02:22:34;11.97;;;6.30;;
17201;SDS011;8717;53.588;10.176;2023-08-31T02:25:01;7.53;;;6.53;;
17201;SDS011;8717;53.588;10.176;2023-08-31T02:27:29;11.47;;;6.60;;
17201;SDS011;8717;53.588;10.176;2023-08-31T02:29:56;9.77;;;6.50;;
17201;SDS011;8717;53.588;10.176;2023-08-31T02:32:23;9.97;;;6.53;;
17201;SDS011;8717;53.588;10.176;2023-08-31T02:34:51;7.83;;;6.73;;
17201;SDS011;8717;53.588;10.176;2023-08-31T02:37:18;8.73;;;6.60;;
17201;SDS011;8717;53.588;10.176;2023-08-31T02:39:45;8.13;;;6.60;;
17201;SDS011;8717;53.588;10.176;2023-08-31T02:42:11;9.30;;;6.80;;
17201;SDS011;8717;53.588;10.176;2023-08-31T02:44:40;8.13;;;6.30;;
17201;SDS011;8717;53.588;10.176;2023-08-31T02:47:07;7.47;;;6.37;;
17201;SDS011;8717;53.588;10.176;2023-08-31T02:49:33;7.67;;;6.50;;
17201;SDS011;8717;53.588;10.176;2023-08-31T02:52:01;7.73;;;6.40;;
17201;SDS011;8717;53.588;10.176;2023-08-31T02:54:28;9.67;;;6.10;;
17201;SDS011;8717;53.588;10.176;2023-08-31T02:56:55;7.17;;;6.10;;
17201;SDS011;8717;53.588;10.176;2023-08-31T02:59:22;7.57;;;6.67;;
17201;SDS011;8717;53.588;10.176;2023-08-31T03:01:49;10.83;;;6.63;;
17201;SDS011;8717;53.588;10.176;2023-08-31T03:04:16;7.43;;;6.33;;
17201;SDS011;8717;53.588;10.176;2023-08-31T03:06:42;7.77;;;6.60;;
17201;SDS011;8717;53.588;10.176;2023-08-31T03:09:09;7.70;;;6.07;;
17201;SDS011;8717;53.588;10.176;2023-08-31T03:11:37;10.57;;;6.90;;
17201;SDS011;8717;53.588;10.176;2023-08-31T03:14:03;9.10;;;6.40;;
17201;SDS011;8717;53.588;10.176;2023-08-31T03:16:30;6.60;;;5.87;;
17201;SDS011;8717;53.588;10.176;2023-08-31T03:18:57;9.87;;;6.10;;
17201;SDS011;8717;53.588;10.176;2023-08-31T03:21:24;7.77;;;5.60;;
17201;SDS011;8717;53.588;10.176;2023-08-31T03:23:50;7.80;;;5.60;;
17201;SDS011;8717;53.588;10.176;2023-08-31T03:26:18;7.60;;;5.70;;
17201;SDS011;8717;53.588;10.176;2023-08-31T03:28:45;8.50;;;5.40;;
17201;SDS011;8717;53.588;10.176;2023-08-31T03:31:12;7.10;;;5.10;;
17201;SDS011;8717;53.588;10.176;2023-08-31T03:33:39;8.13;;;5.87;;
17201;SDS011;8717;53.588;10.176;2023-08-31T03:36:06;6.63;;;5.00;;
17201;SDS011;8717;53.588;10.176;2023-08-31T03:38:33;6.53;;;5.03;;
17201;SDS011;8717;53.588;10.176;2023-08-31T03:41:02;6.37;;;4.97;;
17201;SDS011;8717;53.588;10.176;2023-08-31T03:43:31;5.87;;;4.67;;
17201;SDS011;8717;53.588;10.176;2023-08-31T03:45:58;6.20;;;4.77;;
17201;SDS011;8717;53.588;10.176;2023-08-31T03:48:25;7.77;;;5.43;;
17201;SDS011;8717;53.588;10.176;2023-08-31T03:50:52;7.00;;;5.07;;
17201;SDS011;8717;53.588;10.176;2023-08-31T03:53:21;9.30;;;5.43;;
17201;SDS011;8717;53.588;10.176;2023-08-31T03:55:51;7.63;;;5.10;;
17201;SDS011;8717;53.588;10.176;2023-08-31T03:58:18;7.97;;;5.17;;
17201;SDS011;8717;53.588;10.176;2023-08-31T04:00:50;6.43;;;5.40;;
17201;SDS011;8717;53.588;10.176;2023-08-31T04:03:18;6.50;;;5.10;;
17201;SDS011;8717;53.588;10.176;2023-08-31T04:05:46;6.90;;;4.23;;
17201;SDS011;8717;53.588;10.176;2023-08-31T04:08:13;6.10;;;4.27;;
17201;SDS011;8717;53.588;10.176;2023-08-31T04:10:40;7.77;;;4.40;;
17201;SDS011;8717;53.588;10.176;2023-08-31T04:13:07;5.57;;;4.33;;
17201;SDS011;8717;53.588;10.176;2023-08-31T04:15:34;7.73;;;4.80;;
17201;SDS011;8717;53.588;10.176;2023-08-31T04:18:03;9.03;;;4.80;;
17201;SDS011;8717;53.588;10.176;2023-08-31T04:20:30;6.53;;;4.80;;
17201;SDS011;8717;53.588;10.176;2023-08-31T04:22:59;8.90;;;4.63;;
17201;SDS011;8717;53.588;10.176;2023-08-31T04:25:28;5.57;;;4.53;;
17201;SDS011;8717;53.588;10.176;2023-08-31T04:27:56;6.97;;;4.20;;
17201;SDS011;8717;53.588;10.176;2023-08-31T04:30:23;5.50;;;4.00;;
17201;SDS011;8717;53.588;10.176;2023-08-31T04:32:51;8.83;;;4.60;;
17201;SDS011;8717;53.588;10.176;2023-08-31T04:35:20;5.53;;;4.43;;
17201;SDS011;8717;53.588;10.176;2023-08-31T04:37:47;6.00;;;4.10;;
17201;SDS011;8717;53.588;10.176;2023-08-31T04:40:13;6.80;;;4.50;;
17201;SDS011;8717;53.588;10.176;2023-08-31T04:42:40;5.47;;;3.97;;
17201;SDS011;8717;53.588;10.176;2023-08-31T04:45:08;5.53;;;3.70;;
17201;SDS011;8717;53.588;10.176;2023-08-31T04:47:37;5.70;;;4.07;;
17201;SDS011;8717;53.588;10.176;2023-08-31T04:50:04;5.87;;;3.73;;
17201;SDS011;8717;53.588;10.176;2023-08-31T04:52:33;4.37;;;3.67;;
17201;SDS011;8717;53.588;10.176;2023-08-31T04:55:00;6.87;;;4.10;;
17201;SDS011;8717;53.588;10.176;2023-08-31T04:57:28;6.07;;;4.30;;
17201;SDS011;8717;53.588;10.176;2023-08-31T04:59:55;6.23;;;3.97;;
17201;SDS011;8717;53.588;10.176;2023-08-31T05:02:22;5.10;;;3.80;;
17201;SDS011;8717;53.588;10.176;2023-08-31T05:04:48;6.33;;;3.80;;
17201;SDS011;8717;53.588;10.176;2023-08-31T05:07:15;8.13;;;4.03;;
17201;SDS011;8717;53.588;10.176;2023-08-31T05:09:43;8.03;;;3.73;;
17201;SDS011;8717;53.588;10.176;2023-08-31T05:12:10;7.87;;;4.43;;
17201;SDS011;8717;53.588;10.176;2023-08-31T05:14:36;7.93;;;4.53;;
17201;SDS011;8717;53.588;10.176;2023-08-31T05:17:04;7.10;;;4.47;;
17201;SDS011;8717;53.588;10.176;2023-08-31T05:19:31;7.43;;;4.30;;
17201;SDS011;8717;53.588;10.176;2023-08-31T05:21:58;6.60;;;3.77;;
17201;SDS011;8717;53.588;10.176;2023-08-31T05:24:25;6.90;;;4.40;;
17201;SDS011;8717;53.588;10.176;2023-08-31T05:26:53;7.43;;;3.83;;
17201;SDS011;8717;53.588;10.176;2023-08-31T05:29:19;7.67;;;4.27;;
17201;SDS011;8717;53.588;10.176;2023-08-31T05:31:46;7.70;;;3.97;;
17201;SDS011;8717;53.588;10.176;2023-08-31T05:34:15;5.80;;;3.73;;
17201;SDS011;8717;53.588;10.176;2023-08-31T05:36:42;7.60;;;3.93;;
17201;SDS011;8717;53.588;10.176;2023-08-31T05:39:09;7.70;;;3.80;;
17201;SDS011;8717;53.588;10.176;2023-08-31T05:41:36;5.13;;;3.80;;
17201;SDS011;8717;53.588;10.176;2023-08-31T05:44:07;7.40;;;4.40;;
17201;SDS011;8717;53.588;10.176;2023-08-31T05:46:34;8.83;;;4.43;;
17201;SDS011;8717;53.588;10.176;2023-08-31T05:49:01;7.23;;;4.17;;
17201;SDS011;8717;53.588;10.176;2023-08-31T05:51:29;8.00;;;4.00;;
17201;SDS011;8717;53.588;10.176;2023-08-31T05:53:55;9.17;;;4.43;;
17201;SDS011;8717;53.588;10.176;2023-08-31T05:56:22;6.20;;;3.80;;
17201;SDS011;8717;53.588;10.176;2023-08-31T05:58:49;7.97;;;4.10;;
17201;SDS011;8717;53.588;10.176;2023-08-31T06:01:21;6.87;;;3.87;;
17201;SDS011;8717;53.588;10.176;2023-08-31T06:03:48;7.47;;;4.50;;
17201;SDS011;8717;53.588;10.176;2023-08-31T06:06:14;6.13;;;4.37;;
17201;SDS011;8717;53.588;10.176;2023-08-31T06:08:41;5.07;;;4.00;;
17201;SDS011;8717;53.588;10.176;2023-08-31T06:11:08;7.50;;;4.23;;
17201;SDS011;8717;53.588;10.176;2023-08-31T06:13:35;6.60;;;4.03;;
17201;SDS011;8717;53.588;10.176;2023-08-31T06:16:02;5.87;;;3.63;;
17201;SDS011;8717;53.588;10.176;2023-08-31T06:18:30;6.83;;;3.60;;
17201;SDS011;8717;53.588;10.176;2023-08-31T06:20:57;7.77;;;3.77;;
17201;SDS011;8717;53.588;10.176;2023-08-31T06:23:23;11.43;;;3.90;;
17201;SDS011;8717;53.588;10.176;2023-08-31T06:25:50;8.47;;;3.70;;
17201;SDS011;8717;53.588;10.176;2023-08-31T06:28:17;7.60;;;3.13;;
17201;SDS011;8717;53.588;10.176;2023-08-31T06:30:43;6.30;;;3.33;;
17201;SDS011;8717;53.588;10.176;2023-08-31T06:33:11;5.10;;;3.40;;
17201;SDS011;8717;53.588;10.176;2023-08-31T06:35:39;6.73;;;3.20;;
17201;SDS011;8717;53.588;10.176;2023-08-31T06:38:06;7.70;;;3.30;;
17201;SDS011;8717;53.588;10.176;2023-08-31T06:40:33;5.60;;;2.83;;
17201;SDS011;8717;53.588;10.176;2023-08-31T06:42:59;6.87;;;3.50;;
17201;SDS011;8717;53.588;10.176;2023-08-31T06:45:27;7.67;;;3.47;;
17201;SDS011;8717;53.588;10.176;2023-08-31T06:47:53;6.50;;;3.33;;
17201;SDS011;8717;53.588;10.176;2023-08-31T06:50:20;7.93;;;3.03;;
17201;SDS011;8717;53.588;10.176;2023-08-31T06:52:48;7.83;;;3.03;;
17201;SDS011;8717;53.588;10.176;2023-08-31T06:55:15;4.20;;;2.80;;
17201;SDS011;8717;53.588;10.176;2023-08-31T06:57:41;6.80;;;2.70;;
17201;SDS011;8717;53.588;10.176;2023-08-31T07:00:09;7.13;;;3.03;;
17201;SDS011;8717;53.588;10.176;2023-08-31T07:02:38;5.83;;;3.10;;
17201;SDS011;8717;53.588;10.176;2023-08-31T07:05:06;6.10;;;2.97;;
17201;SDS011;8717;53.588;10.176;2023-08-31T07:07:32;5.70;;;3.37;;
17201;SDS011;8717;53.588;10.176;2023-08-31T07:10:01;5.37;;;2.90;;
17201;SDS011;8717;53.588;10.176;2023-08-31T07:12:27;8.93;;;3.00;;
17201;SDS011;8717;53.588;10.176;2023-08-31T07:14:54;5.03;;;2.53;;
17201;SDS011;8717;53.588;10.176;2023-08-31T07:17:21;4.07;;;2.13;;
17201;SDS011;8717;53.588;10.176;2023-08-31T07:19:48;10.33;;;3.03;;
17201;SDS011;8717;53.588;10.176;2023-08-31T07:22:14;6.10;;;2.60;;
17201;SDS011;8717;53.588;10.176;2023-08-31T07:24:42;4.63;;;2.30;;
17201;SDS011;8717;53.588;10.176;2023-08-31T07:27:11;6.60;;;2.57;;
17201;SDS011;8717;53.588;10.176;2023-08-31T07:29:38;5.63;;;2.80;;
17201;SDS011;8717;53.588;10.176;2023-08-31T07:32:05;3.80;;;2.60;;
17201;SDS011;8717;53.588;10.176;2023-08-31T07:34:33;3.13;;;2.40;;
17201;SDS011;8717;53.588;10.176;2023-08-31T07:37:00;5.87;;;2.20;;
17201;SDS011;8717;53.588;10.176;2023-08-31T07:39:27;3.33;;;2.30;;
17201;SDS011;8717;53.588;10.176;2023-08-31T07:41:54;4.63;;;2.30;;
17201;SDS011;8717;53.588;10.176;2023-08-31T07:44:23;5.00;;;2.07;;
17201;SDS011;8717;53.588;10.176;2023-08-31T07:46:50;4.97;;;2.20;;
17201;SDS011;8717;53.588;10.176;2023-08-31T07:49:16;3.97;;;1.97;;
17201;SDS011;8717;53.588;10.176;2023-08-31T07:51:43;3.70;;;1.60;;
17201;SDS011;8717;53.588;10.176;2023-08-31T07:54:10;3.27;;;1.47;;
17201;SDS011;8717;53.588;10.176;2023-08-31T07:56:37;2.20;;;1.30;;
17201;SDS011;8717;53.588;10.176;2023-08-31T07:59:06;5.03;;;1.53;;
17201;SDS011;8717;53.588;10.176;2023-08-31T08:01:34;3.20;;;1.60;;
17201;SDS011;8717;53.588;10.176;2023-08-31T08:04:01;3.30;;;1.45;;
17201;SDS011;8717;53.588;10.176;2023-08-31T08:06:28;3.28;;;1.50;;
17201;SDS011;8717;53.588;10.176;2023-08-31T08:08:54;4.00;;;1.50;;
17201;SDS011;8717;53.588;10.176;2023-08-31T08:11:22;3.60;;;1.27;;
17201;SDS011;8717;53.588;10.176;2023-08-31T08:13:48;4.93;;;1.75;;
17201;SDS011;8717;53.588;10.176;2023-08-31T08:16:15;3.88;;;1.63;;
17201;SDS011;8717;53.588;10.176;2023-08-31T08:18:43;3.75;;;1.60;;
17201;SDS011;8717;53.588;10.176;2023-08-31T08:21:10;3.20;;;1.40;;
17201;SDS011;8717;53.588;10.176;2023-08-31T08:23:36;3.17;;;1.70;;
17201;SDS011;8717;53.588;10.176;2023-08-31T08:26:03;3.90;;;1.65;;
17201;SDS011;8717;53.588;10.176;2023-08-31T08:28:30;2.55;;;1.30;;
17201;SDS011;8717;53.588;10.176;2023-08-31T08:30:57;3.80;;;1.50;;
17201;SDS011;8717;53.588;10.176;2023-08-31T08:33:28;3.67;;;1.45;;
17201;SDS011;8717;53.588;10.176;2023-08-31T08:35:57;4.45;;;1.23;;
17201;SDS011;8717;53.588;10.176;2023-08-31T08:38:23;2.67;;;1.30;;
17201;SDS011;8717;53.588;10.176;2023-08-31T08:40:51;3.10;;;1.27;;
17201;SDS011;8717;53.588;10.176;2023-08-31T08:43:18;1.83;;;1.10;;
17201;SDS011;8717;53.588;10.176;2023-08-31T08:45:50;3.42;;;1.30;;
17201;SDS011;8717;53.588;10.176;2023-08-31T08:48:17;4.38;;;1.40;;
17201;SDS011;8717;53.588;10.176;2023-08-31T08:50:45;1.65;;;1.23;;
17201;SDS011;8717;53.588;10.176;2023-08-31T08:53:14;1.23;;;1.10;;
17201;SDS011;8717;53.588;10.176;2023-08-31T08:55:40;1.88;;;1.10;;
17201;SDS011;8717;53.588;10.176;2023-08-31T08:58:07;2.30;;;1.20;;
17201;SDS011;8717;53.588;10.176;2023-08-31T09:00:35;2.53;;;1.20;;
17201;SDS011;8717;53.588;10.176;2023-08-31T09:03:02;4.68;;;1.60;;
17201;SDS011;8717;53.588;10.176;2023-08-31T09:05:30;3.65;;;1.50;;
17201;SDS011;8717;53.588;10.176;2023-08-31T09:08:01;3.53;;;1.40;;
17201;SDS011;8717;53.588;10.176;2023-08-31T09:10:37;2.70;;;1.30;;
17201;SDS011;8717;53.588;10.176;2023-08-31T09:13:06;2.53;;;1.08;;
17201;SDS011;8717;53.588;10.176;2023-08-31T09:15:41;3.10;;;1.60;;
17201;SDS011;8717;53.588;10.176;2023-08-31T09:18:14;3.95;;;1.33;;
17201;SDS011;8717;53.588;10.176;2023-08-31T09:20:42;4.05;;;1.50;;
17201;SDS011;8717;53.588;10.176;2023-08-31T09:23:10;2.50;;;1.30;;
17201;SDS011;8717;53.588;10.176;2023-08-31T09:25:41;3.17;;;1.50;;
17201;SDS011;8717;53.588;10.176;2023-08-31T09:28:09;1.55;;;1.17;;
17201;SDS011;8717;53.588;10.176;2023-08-31T09:30:37;1.73;;;1.30;;
17201;SDS011;8717;53.588;10.176;2023-08-31T09:33:05;3.23;;;1.30;;
17201;SDS011;8717;53.588;10.176;2023-08-31T09:35:33;2.73;;;1.50;;
17201;SDS011;8717;53.588;10.176;2023-08-31T09:38:04;4.07;;;1.77;;
17201;SDS011;8717;53.588;10.176;2023-08-31T09:40:33;4.05;;;1.70;;
17201;SDS011;8717;53.588;10.176;2023-08-31T09:43:02;3.40;;;1.60;;
17201;SDS011;8717;53.588;10.176;2023-08-31T09:45:29;2.53;;;1.80;;
17201;SDS011;8717;53.588;10.176;2023-08-31T09:47:57;4.22;;;1.98;;
17201;SDS011;8717;53.588;10.176;2023-08-31T09:50:25;3.40;;;1.53;;
17201;SDS011;8717;53.588;10.176;2023-08-31T09:52:53;3.77;;;1.77;;
17201;SDS011;8717;53.588;10.176;2023-08-31T09:55:22;4.60;;;1.77;;
17201;SDS011;8717;53.588;10.176;2023-08-31T09:57:51;4.03;;;1.83;;
17201;SDS011;8717;53.588;10.176;2023-08-31T10:00:20;6.37;;;1.77;;
17201;SDS011;8717;53.588;10.176;2023-08-31T10:02:47;3.55;;;1.67;;
17201;SDS011;8717;53.588;10.176;2023-08-31T10:05:16;4.00;;;1.58;;
17201;SDS011;8717;53.588;10.176;2023-08-31T10:07:42;3.85;;;1.75;;
17201;SDS011;8717;53.588;10.176;2023-08-31T10:10:11;4.25;;;1.90;;
17201;SDS011;8717;53.588;10.176;2023-08-31T10:12:40;2.95;;;1.90;;
17201;SDS011;8717;53.588;10.176;2023-08-31T10:15:08;4.50;;;1.83;;
17201;SDS011;8717;53.588;10.176;2023-08-31T10:17:37;3.03;;;1.90;;
17201;SDS011;8717;53.588;10.176;2023-08-31T10:20:06;3.92;;;1.77;;
17201;SDS011;8717;53.588;10.176;2023-08-31T10:22:34;3.45;;;2.13;;
17201;SDS011;8717;53.588;10.176;2023-08-31T10:25:02;4.32;;;1.90;;
17201;SDS011;8717;53.588;10.176;2023-08-31T10:27:35;2.63;;;1.77;;
17201;SDS011;8717;53.588;10.176;2023-08-31T10:30:14;4.53;;;2.30;;
17201;SDS011;8717;53.588;10.176;2023-08-31T10:32:43;2.85;;;2.00;;
17201;SDS011;8717;53.588;10.176;2023-08-31T10:35:09;2.25;;;1.63;;
17201;SDS011;8717;53.588;10.176;2023-08-31T10:37:36;2.45;;;1.50;;
17201;SDS011;8717;53.588;10.176;2023-08-31T10:40:06;2.40;;;1.70;;
17201;SDS011;8717;53.588;10.176;2023-08-31T10:42:40;2.33;;;1.50;;
17201;SDS011;8717;53.588;10.176;2023-08-31T10:45:08;2.63;;;1.42;;
17201;SDS011;8717;53.588;10.176;2023-08-31T10:47:40;3.78;;;1.80;;
17201;SDS011;8717;53.588;10.176;2023-08-31T10:50:17;2.47;;;1.80;;
17201;SDS011;8717;53.588;10.176;2023-08-31T10:52:46;4.97;;;2.00;;
17201;SDS011;8717;53.588;10.176;2023-08-31T10:55:12;3.60;;;2.20;;
17201;SDS011;8717;53.588;10.176;2023-08-31T10:57:39;3.95;;;2.00;;
17201;SDS011;8717;53.588;10.176;2023-08-31T11:00:07;2.95;;;2.10;;
17201;SDS011;8717;53.588;10.176;2023-08-31T11:02:36;2.88;;;2.30;;
17201;SDS011;8717;53.588;10.176;2023-08-31T11:05:07;3.28;;;2.20;;
17201;SDS011;8717;53.588;10.176;2023-08-31T11:07:36;3.65;;;1.60;;
17201;SDS011;8717;53.588;10.176;2023-08-31T11:10:09;2.20;;;1.73;;
17201;SDS011;8717;53.588;10.176;2023-08-31T11:12:37;2.50;;;1.70;;
17201;SDS011;8717;53.588;10.176;2023-08-31T11:15:05;2.47;;;1.70;;
17201;SDS011;8717;53.588;10.176;2023-08-31T11:17:32;3.42;;;1.95;;
17201;SDS011;8717;53.588;10.176;2023-08-31T11:20:00;3.60;;;2.20;;
17201;SDS011;8717;53.588;10.176;2023-08-31T11:22:30;3.33;;;1.88;;
17201;SDS011;8717;53.588;10.176;2023-08-31T11:24:59;3.20;;;1.75;;
17201;SDS011;8717;53.588;10.176;2023-08-31T11:27:26;1.88;;;1.40;;
17201;SDS011;8717;53.588;10.176;2023-08-31T11:29:52;2.10;;;1.50;;
17201;SDS011;8717;53.588;10.176;2023-08-31T11:32:22;2.72;;;1.73;;
17201;SDS011;8717;53.588;10.176;2023-08-31T11:34:49;3.08;;;1.70;;
17201;SDS011;8717;53.588;10.176;2023-08-31T11:37:16;3.28;;;1.80;;
17201;SDS011;8717;53.588;10.176;2023-08-31T11:39:48;3.03;;;1.83;;
17201;SDS011;8717;53.588;10.176;2023-08-31T11:42:18;2.08;;;1.35;;
17201;SDS011;8717;53.588;10.176;2023-08-31T11:44:46;2.78;;;1.42;;
17201;SDS011;8717;53.588;10.176;2023-08-31T11:47:14;1.83;;;1.27;;
17201;SDS011;8717;53.588;10.176;2023-08-31T11:49:41;1.23;;;1.00;;
17201;SDS011;8717;53.588;10.176;2023-08-31T11:52:09;2.35;;;1.52;;
17201;SDS011;8717;53.588;10.176;2023-08-31T11:54:37;2.17;;;1.30;;
17201;SDS011;8717;53.588;10.176;2023-08-31T11:57:06;1.35;;;1.05;;
17201;SDS011;8717;53.588;10.176;2023-08-31T11:59:35;2.50;;;1.15;;
17201;SDS011;8717;53.588;10.176;2023-08-31T12:02:05;4.05;;;1.50;;
17201;SDS011;8717;53.588;10.176;2023-08-31T12:04:33;2.25;;;1.05;;
17201;SDS011;8717;53.588;10.176;2023-08-31T12:07:00;2.63;;;1.20;;
17201;SDS011;8717;53.588;10.176;2023-08-31T12:09:29;2.70;;;1.13;;
17201;SDS011;8717;53.588;10.176;2023-08-31T12:11:56;2.45;;;1.10;;
17201;SDS011;8717;53.588;10.176;2023-08-31T12:14:25;2.25;;;1.10;;
17201;SDS011;8717;53.588;10.176;2023-08-31T12:17:00;2.15;;;1.10;;
17201;SDS011;8717;53.588;10.176;2023-08-31T12:19:29;3.78;;;1.10;;
17201;SDS011;8717;53.588;10.176;2023-08-31T12:21:56;1.77;;;0.98;;
17201;SDS011;8717;53.588;10.176;2023-08-31T12:24:23;1.75;;;0.80;;
17201;SDS011;8717;53.588;10.176;2023-08-31T12:26:50;2.38;;;0.90;;
17201;SDS011;8717;53.588;10.176;2023-08-31T12:29:18;3.38;;;0.85;;
17201;SDS011;8717;53.588;10.176;2023-08-31T12:31:45;1.35;;;0.68;;
17201;SDS011;8717;53.588;10.176;2023-08-31T12:34:14;1.55;;;0.80;;
17201;SDS011;8717;53.588;10.176;2023-08-31T12:36:40;1.30;;;0.70;;
17201;SDS011;8717;53.588;10.176;2023-08-31T12:39:07;2.17;;;1.00;;
17201;SDS011;8717;53.588;10.176;2023-08-31T12:41:35;1.60;;;0.60;;
17201;SDS011;8717;53.588;10.176;2023-08-31T12:44:02;1.38;;;0.75;;
17201;SDS011;8717;53.588;10.176;2023-08-31T12:46:29;5.13;;;1.20;;
17201;SDS011;8717;53.588;10.176;2023-08-31T12:48:56;1.15;;;0.70;;
17201;SDS011;8717;53.588;10.176;2023-08-31T12:51:24;1.90;;;0.77;;
17201;SDS011;8717;53.588;10.176;2023-08-31T12:53:51;2.17;;;0.85;;
17201;SDS011;8717;53.588;10.176;2023-08-31T12:56:18;1.80;;;0.70;;
17201;SDS011;8717;53.588;10.176;2023-08-31T12:58:48;2.03;;;0.95;;
17201;SDS011;8717;53.588;10.176;2023-08-31T13:01:15;2.60;;;0.70;;
17201;SDS011;8717;53.588;10.176;2023-08-31T13:03:41;1.35;;;0.80;;
17201;SDS011;8717;53.588;10.176;2023-08-31T13:06:08;5.20;;;1.13;;
17201;SDS011;8717;53.588;10.176;2023-08-31T13:08:36;2.07;;;1.00;;
17201;SDS011;8717;53.588;10.176;2023-08-31T13:11:03;7.20;;;1.30;;
17201;SDS011;8717;53.588;10.176;2023-08-31T13:13:30;3.10;;;0.87;;
17201;SDS011;8717;53.588;10.176;2023-08-31T13:15:57;1.30;;;0.80;;
17201;SDS011;8717;53.588;10.176;2023-08-31T13:18:24;2.63;;;0.80;;
17201;SDS011;8717;53.588;10.176;2023-08-31T13:20:50;1.77;;;0.67;;
17201;SDS011;8717;53.588;10.176;2023-08-31T13:23:17;2.10;;;0.80;;
17201;SDS011;8717;53.588;10.176;2023-08-31T13:25:45;1.77;;;0.67;;
17201;SDS011;8717;53.588;10.176;2023-08-31T13:28:12;5.37;;;1.03;;
17201;SDS011;8717;53.588;10.176;2023-08-31T13:30:39;4.50;;;0.83;;
17201;SDS011;8717;53.588;10.176;2023-08-31T13:33:07;1.23;;;0.80;;
17201;SDS011;8717;53.588;10.176;2023-08-31T13:35:34;0.93;;;0.60;;
17201;SDS011;8717;53.588;10.176;2023-08-31T13:38:01;1.43;;;0.80;;
17201;SDS011;8717;53.588;10.176;2023-08-31T13:40:28;1.20;;;0.70;;
17201;SDS011;8717;53.588;10.176;2023-08-31T13:42:57;2.10;;;0.80;;
17201;SDS011;8717;53.588;10.176;2023-08-31T13:45:28;0.90;;;0.80;;
17201;SDS011;8717;53.588;10.176;2023-08-31T13:47:55;2.60;;;0.90;;
17201;SDS011;8717;53.588;10.176;2023-08-31T13:50:22;1.57;;;0.77;;
17201;SDS011;8717;53.588;10.176;2023-08-31T13:52:49;0.90;;;0.70;;
17201;SDS011;8717;53.588;10.176;2023-08-31T13:55:15;2.03;;;0.90;;
17201;SDS011;8717;53.588;10.176;2023-08-31T13:57:42;2.17;;;0.90;;
17201;SDS011;8717;53.588;10.176;2023-08-31T14:00:11;4.20;;;1.00;;
17201;SDS011;8717;53.588;10.176;2023-08-31T14:02:39;1.50;;;0.77;;
17201;SDS011;8717;53.588;10.176;2023-08-31T14:05:06;1.00;;;0.70;;
17201;SDS011;8717;53.588;10.176;2023-08-31T14:07:35;1.33;;;0.83;;
17201;SDS011;8717;53.588;10.176;2023-08-31T14:10:02;2.40;;;0.80;;
17201;SDS011;8717;53.588;10.176;2023-08-31T14:12:30;1.23;;;0.80;;
17201;SDS011;8717;53.588;10.176;2023-08-31T14:14:57;2.13;;;0.93;;
17201;SDS011;8717;53.588;10.176;2023-08-31T14:17:25;1.63;;;0.80;;
17201;SDS011;8717;53.588;10.176;2023-08-31T14:19:52;2.80;;;0.90;;
17201;SDS011;8717;53.588;10.176;2023-08-31T14:22:19;0.77;;;0.60;;
17201;SDS011;8717;53.588;10.176;2023-08-31T14:24:45;1.25;;;0.60;;
17201;SDS011;8717;53.588;10.176;2023-08-31T14:27:12;1.40;;;0.70;;
17201;SDS011;8717;53.588;10.176;2023-08-31T14:29:38;2.72;;;1.00;;
17201;SDS011;8717;53.588;10.176;2023-08-31T14:32:05;2.17;;;0.90;;
17201;SDS011;8717;53.588;10.176;2023-08-31T14:34:33;1.90;;;0.85;;
17201;SDS011;8717;53.588;10.176;2023-08-31T14:37:00;1.73;;;0.73;;
17201;SDS011;8717;53.588;10.176;2023-08-31T14:39:27;1.52;;;0.80;;
17201;SDS011;8717;53.588;10.176;2023-08-31T14:41:55;2.67;;;0.60;;
17201;SDS011;8717;53.588;10.176;2023-08-31T14:44:22;4.10;;;1.05;;
17201;SDS011;8717;53.588;10.176;2023-08-31T14:46:49;0.90;;;0.63;;
17201;SDS011;8717;53.588;10.176;2023-08-31T14:49:16;1.80;;;0.63;;